createdAt,value
2022-08-20T00:00:15.354Z,0.60
2022-08-20T00:05:25.337Z,0.80
2022-08-20T00:10:31.287Z,0.80
2022-08-20T00:15:40.396Z,0.70
2022-08-20T00:20:49.322Z,0.90
2022-08-20T00:25:54.502Z,1.00
2022-08-20T00:30:59.673Z,0.80
2022-08-20T00:36:06.769Z,0.90
2022-08-20T00:41:15.565Z,0.70
2022-08-20T00:46:27.925Z,0.90
2022-08-20T00:51:42.517Z,0.90
2022-08-20T00:56:53.428Z,0.80
2022-08-20T01:02:00.147Z,0.80
2022-08-20T01:07:06.516Z,0.70
2022-08-20T01:12:11.952Z,0.90
2022-08-20T01:17:23.787Z,0.77
2022-08-20T01:22:57.564Z,1.00
2022-08-20T01:28:03.239Z,0.90
2022-08-20T01:33:07.557Z,0.90
2022-08-20T01:38:12.512Z,1.00
2022-08-20T01:43:18.184Z,1.02
2022-08-20T01:48:23.254Z,1.10
2022-08-20T01:53:34.279Z,1.00
2022-08-20T01:58:44.970Z,1.20
2022-08-20T02:03:49.000Z,1.00
2022-08-20T02:08:55.742Z,1.20
2022-08-20T02:14:01.766Z,1.10
2022-08-20T02:19:13.552Z,1.00
2022-08-20T02:24:17.328Z,1.00
2022-08-20T02:29:22.600Z,1.10
2022-08-20T02:34:26.283Z,1.05
2022-08-20T02:39:30.276Z,1.05
2022-08-20T02:44:35.615Z,1.05
2022-08-20T02:49:40.709Z,1.25
2022-08-20T02:54:44.676Z,0.98
2022-08-20T02:59:52.275Z,1.30
2022-08-20T03:04:56.047Z,1.00
2022-08-20T03:09:59.846Z,1.00
2022-08-20T03:15:07.213Z,1.00
2022-08-20T03:20:22.396Z,1.30
2022-08-20T03:25:29.228Z,1.20
2022-08-20T03:30:34.729Z,1.00
2022-08-20T03:35:40.384Z,1.02
2022-08-20T03:40:45.207Z,1.08
2022-08-20T03:45:50.812Z,1.15
2022-08-20T03:50:55.842Z,1.10
2022-08-20T03:56:04.480Z,1.10
2022-08-20T04:01:32.105Z,1.35
2022-08-20T04:06:33.708Z,1.13
2022-08-20T04:11:37.688Z,1.20
2022-08-20T04:16:43.262Z,1.10
2022-08-20T04:21:48.583Z,1.10
2022-08-20T04:26:52.716Z,1.30
2022-08-20T04:31:57.887Z,1.25
2022-08-20T04:37:01.517Z,1.20
2022-08-20T04:42:05.691Z,1.20
2022-08-20T04:47:10.688Z,1.20
2022-08-20T04:52:14.391Z,1.05
2022-08-20T04:57:18.078Z,1.30
2022-08-20T05:02:23.843Z,1.30
2022-08-20T05:07:27.455Z,1.20
2022-08-20T05:12:31.026Z,1.30
2022-08-20T05:17:36.100Z,1.10
2022-08-20T05:22:39.664Z,1.95
2022-08-20T05:27:55.510Z,1.60
2022-08-20T05:33:00.842Z,1.17
2022-08-20T05:38:04.551Z,1.30
2022-08-20T05:43:08.285Z,1.33
2022-08-20T05:48:16.865Z,1.42
2022-08-20T05:53:21.805Z,1.45
2022-08-20T05:58:29.216Z,1.40
2022-08-20T06:03:51.981Z,1.55
2022-08-20T06:08:55.854Z,1.40
2022-08-20T06:13:59.382Z,1.50
2022-08-20T06:19:04.580Z,1.50
2022-08-20T06:24:09.051Z,1.50
2022-08-20T06:29:12.656Z,1.70
2022-08-20T06:34:18.883Z,1.58
2022-08-20T06:39:23.144Z,1.77
2022-08-20T06:44:28.567Z,1.70
2022-08-20T06:49:37.433Z,1.70
2022-08-20T06:54:41.107Z,1.60
2022-08-20T06:59:44.790Z,1.92
2022-08-20T07:05:00.471Z,1.60
2022-08-20T07:10:08.299Z,2.10
2022-08-20T07:15:14.292Z,2.30
2022-08-20T07:20:20.429Z,2.08
2022-08-20T07:25:25.127Z,2.28
2022-08-20T07:30:56.859Z,1.95
2022-08-20T07:36:05.106Z,2.20
2022-08-20T07:41:13.529Z,2.10
2022-08-20T07:46:21.670Z,2.25
2022-08-20T07:51:27.744Z,2.30
2022-08-20T07:56:32.103Z,2.50
2022-08-20T08:01:36.662Z,2.25
2022-08-20T08:06:45.422Z,2.45
2022-08-20T08:11:51.897Z,2.40
2022-08-20T08:16:59.107Z,2.13
2022-08-20T08:22:04.531Z,2.25
2022-08-20T08:27:09.033Z,2.45
2022-08-20T08:32:12.865Z,2.38
2022-08-20T08:37:18.044Z,2.28
2022-08-20T08:42:43.239Z,2.45
2022-08-20T08:47:47.602Z,2.30
2022-08-20T08:53:00.466Z,2.10
2022-08-20T08:58:17.236Z,2.40
2022-08-20T09:08:43.608Z,2.40
2022-08-20T09:13:47.674Z,1.77
2022-08-20T09:18:52.046Z,1.85
2022-08-20T09:23:57.148Z,2.00
2022-08-20T09:29:01.019Z,2.10
2022-08-20T09:34:05.226Z,1.63
2022-08-20T09:39:12.609Z,2.05
2022-08-20T09:44:17.961Z,1.60
2022-08-20T09:49:21.733Z,2.20
2022-08-20T09:54:30.242Z,2.10
2022-08-20T09:59:36.287Z,1.70
2022-08-20T10:04:39.957Z,1.80
2022-08-20T10:09:46.611Z,1.90
2022-08-20T10:14:50.228Z,1.60
2022-08-20T10:19:54.378Z,1.60
2022-08-20T10:24:59.591Z,1.42
2022-08-20T10:30:03.454Z,1.75
2022-08-20T10:35:07.954Z,1.85
2022-08-20T10:40:15.687Z,1.73
2022-08-20T10:45:19.914Z,1.80
2022-08-20T10:50:23.652Z,1.60
2022-08-20T10:55:28.756Z,1.42
2022-08-20T11:00:32.518Z,1.52
2022-08-20T11:05:36.315Z,1.70
2022-08-20T11:10:42.799Z,1.63
2022-08-20T11:15:47.235Z,1.67
2022-08-20T11:20:51.027Z,1.70
2022-08-20T11:25:56.678Z,1.60
2022-08-20T11:31:02.088Z,1.65
2022-08-20T11:36:06.645Z,1.45
2022-08-20T11:41:12.044Z,1.60
2022-08-20T11:46:15.846Z,1.50
2022-08-20T11:51:19.489Z,1.70
2022-08-20T11:56:24.529Z,1.60
2022-08-20T12:01:30.379Z,1.70
2022-08-20T12:06:34.165Z,1.77
2022-08-20T12:11:39.259Z,1.50
2022-08-20T12:16:42.909Z,1.50
2022-08-20T12:21:46.567Z,1.75
2022-08-20T12:26:51.522Z,1.60
2022-08-20T12:31:56.568Z,1.58
2022-08-20T12:37:03.062Z,1.60
2022-08-20T12:42:08.656Z,1.70
2022-08-20T12:47:15.959Z,1.90
2022-08-20T12:52:21.970Z,1.60
2022-08-20T12:57:30.544Z,1.90
2022-08-20T13:02:34.638Z,1.67
2022-08-20T13:07:39.715Z,1.50
2022-08-20T13:12:44.789Z,1.80
2022-08-20T13:17:53.395Z,1.60
2022-08-20T13:22:58.137Z,1.63
2022-08-20T13:28:06.300Z,1.52
2022-08-20T13:33:10.044Z,1.90
2022-08-20T13:38:15.388Z,1.75
2022-08-20T13:43:20.629Z,1.65
2022-08-20T13:48:24.449Z,1.58
2022-08-20T13:53:28.589Z,1.63
2022-08-20T13:58:33.695Z,1.80
2022-08-20T14:03:37.369Z,1.80
2022-08-20T14:08:42.463Z,1.58
2022-08-20T14:13:47.795Z,1.50
2022-08-20T14:18:52.923Z,1.58
2022-08-20T14:23:58.258Z,1.63
2022-08-20T14:29:03.420Z,1.45
2022-08-20T14:34:07.125Z,1.50
2022-08-20T14:39:10.881Z,1.30
2022-08-20T14:44:16.268Z,1.50
2022-08-20T14:49:19.928Z,1.50
2022-08-20T14:54:23.579Z,1.30
2022-08-20T14:59:28.724Z,1.35
2022-08-20T15:04:32.653Z,1.35
2022-08-20T15:09:37.920Z,1.20
2022-08-20T15:14:42.888Z,1.52
2022-08-20T15:19:52.502Z,1.25
2022-08-20T15:24:57.656Z,1.23
2022-08-20T15:30:03.004Z,1.33
2022-08-20T15:35:11.380Z,1.15
2022-08-20T15:40:19.242Z,1.35
2022-08-20T15:45:24.457Z,1.33
2022-08-20T15:51:00.388Z,1.65
2022-08-20T15:56:24.681Z,1.20
2022-08-20T16:01:38.989Z,1.20
2022-08-20T16:06:44.637Z,1.13
2022-08-20T16:11:59.801Z,1.20
2022-08-20T16:17:09.323Z,1.17
2022-08-20T16:22:18.869Z,1.08
2022-08-20T16:27:35.050Z,1.17
2022-08-20T16:32:46.314Z,1.10
2022-08-20T16:38:05.254Z,1.10
2022-08-20T16:43:13.761Z,1.20
2022-08-20T16:48:19.071Z,1.00
2022-08-20T16:53:26.609Z,1.13
2022-08-20T16:58:30.285Z,1.30
2022-08-20T17:03:40.623Z,1.10
2022-08-20T17:08:51.940Z,1.20
2022-08-20T17:14:13.273Z,1.25
2022-08-20T17:19:29.144Z,1.13
2022-08-20T17:24:34.564Z,1.17
2022-08-20T17:29:52.129Z,1.25
2022-08-20T17:35:00.732Z,1.05
2022-08-20T17:40:17.534Z,1.10
2022-08-20T17:50:36.141Z,1.20
2022-08-20T17:55:41.528Z,1.30
2022-08-20T18:00:45.983Z,1.20
2022-08-20T18:06:05.410Z,1.20
2022-08-20T18:11:22.555Z,1.13
2022-08-20T18:16:33.679Z,1.20
2022-08-20T18:22:11.171Z,1.10
2022-08-20T18:27:19.360Z,1.17
2022-08-20T18:32:35.112Z,1.00
2022-08-20T18:37:41.115Z,1.10
2022-08-20T18:42:45.456Z,1.10
2022-08-20T18:47:49.198Z,1.10
2022-08-20T18:53:16.838Z,0.98
2022-08-20T18:58:33.655Z,1.10
2022-08-20T19:03:46.278Z,1.20
2022-08-20T19:09:02.265Z,1.10
2022-08-20T19:14:30.322Z,1.08
2022-08-20T19:19:34.720Z,1.20
2022-08-20T19:24:44.342Z,1.10
2022-08-20T19:29:56.637Z,1.08
2022-08-20T19:35:10.040Z,0.98
2022-08-20T19:40:28.840Z,1.20
2022-08-20T19:45:40.243Z,1.38
2022-08-20T19:50:54.845Z,1.30
2022-08-20T19:56:05.070Z,1.50
2022-08-20T20:01:18.100Z,1.30
2022-08-20T20:06:24.877Z,1.30
2022-08-20T20:11:36.737Z,1.42
2022-08-20T20:16:43.026Z,1.30
2022-08-20T20:21:49.931Z,1.23
2022-08-20T20:26:55.296Z,1.50
2022-08-20T20:32:02.739Z,1.50
2022-08-20T20:37:11.197Z,1.40
2022-08-20T20:42:29.742Z,1.50
2022-08-20T20:47:35.975Z,1.30
2022-08-20T20:52:54.548Z,1.33
2022-08-20T20:58:02.620Z,1.45
2022-08-20T21:03:06.674Z,1.45
2022-08-20T21:08:12.337Z,1.35
2022-08-20T21:13:17.525Z,1.50
2022-08-20T21:18:26.314Z,1.38
2022-08-20T21:23:41.463Z,1.30
2022-08-20T21:28:47.206Z,1.58
2022-08-20T21:33:50.835Z,1.45
2022-08-20T21:38:54.533Z,1.20
2022-08-20T21:43:59.916Z,1.38
2022-08-20T21:49:04.582Z,1.48
2022-08-20T21:54:08.202Z,1.30
2022-08-20T21:59:13.527Z,1.23
2022-08-20T22:04:17.860Z,1.30
2022-08-20T22:09:21.903Z,1.30
2022-08-20T22:14:26.978Z,1.20
2022-08-20T22:19:30.667Z,1.38
2022-08-20T22:24:34.462Z,1.40
2022-08-20T22:29:39.547Z,1.30
2022-08-20T22:34:43.803Z,1.50
2022-08-20T22:39:47.636Z,1.20
2022-08-20T22:44:52.824Z,1.30
2022-08-20T22:49:58.143Z,1.30
2022-08-20T22:55:05.836Z,1.40
2022-08-20T23:00:16.849Z,1.20
2022-08-20T23:05:25.676Z,1.30
2022-08-20T23:10:31.942Z,1.23
2022-08-20T23:15:45.147Z,1.30
2022-08-20T23:20:56.089Z,1.20
2022-08-20T23:26:00.123Z,1.20
2022-08-20T23:31:05.361Z,1.30
2022-08-20T23:36:12.105Z,1.15
2022-08-20T23:41:15.867Z,1.20
2022-08-20T23:46:24.664Z,1.33
2022-08-20T23:51:28.472Z,1.35
2022-08-20T23:56:32.443Z,1.25
